Sugar Land, Texas
Current Conditions -  °F | °C
As of 10:53 AM on Saturday 25 Oct 2014 (Local Time) from KSGR Reporting Station
Clear Clear  
Wind Chill: 76°   Ceiling: Unl
Heat Index: 76°   Visibility: 10mi
Dew Point: 60°   Wind: 5mph
Humidity: 58%   Direction: 20°NNE
Pressure: 30.19"   Gusts: NA
Location:  29.63°N, 95.6°W
Report Text: KSGR 251553Z 02004KT 10SM CLR 24/16 A3019 RMK AO2 SLP223 T02440156
Loading
Personal Weather Stations






























Interactive Weather Map
Tropical Storm Tracking
New forecast layout! Learn more

10-Day Weather Forecast

Advertisements
Track Severe Weather on mobile